createdAt,value
2019-01-25T00:02:27.390Z,71.30
2019-01-25T00:07:31.391Z,71.30
2019-01-25T00:12:35.090Z,70.90
2019-01-25T00:17:38.809Z,71.20
2019-01-25T00:22:42.638Z,71.00
2019-01-25T00:27:46.362Z,71.20
2019-01-25T00:32:50.074Z,71.40
2019-01-25T00:37:53.851Z,71.40
2019-01-25T00:42:57.560Z,71.60
2019-01-25T00:48:01.258Z,71.80
2019-01-25T00:53:05.522Z,71.30
2019-01-25T00:58:09.341Z,71.20
2019-01-25T01:03:13.264Z,71.40
2019-01-25T01:08:17.730Z,71.30
2019-01-25T01:13:21.445Z,71.20
2019-01-25T01:18:25.254Z,71.20
2019-01-25T01:23:28.978Z,71.70
2019-01-25T01:28:32.710Z,72.10
2019-01-25T01:33:36.423Z,72.00
2019-01-25T01:38:40.187Z,72.00
2019-01-25T01:43:43.975Z,71.70
2019-01-25T01:48:48.062Z,72.40
2019-01-25T01:53:52.259Z,71.20
2019-01-25T01:58:56.142Z,71.30
2019-01-25T02:03:59.894Z,71.00
2019-01-25T02:09:05.351Z,71.10
2019-01-25T02:14:09.143Z,71.30
2019-01-25T02:19:12.892Z,71.60
2019-01-25T02:24:16.896Z,72.10
2019-01-25T02:29:20.606Z,72.40
2019-01-25T02:34:24.488Z,72.40
2019-01-25T02:39:28.235Z,72.30
2019-01-25T02:44:31.951Z,72.70
2019-01-25T02:49:35.964Z,72.50
2019-01-25T02:54:39.826Z,72.60
2019-01-25T02:59:43.814Z,72.90
2019-01-25T03:04:47.796Z,72.90
2019-01-25T03:09:51.598Z,72.30
2019-01-25T03:14:55.319Z,72.20
2019-01-25T03:19:59.034Z,72.40
2019-01-25T03:25:02.873Z,72.70
2019-01-25T03:30:07.827Z,72.60
2019-01-25T03:35:12.534Z,72.60
2019-01-25T03:40:18.713Z,72.60
2019-01-25T03:45:22.896Z,72.60
2019-01-25T03:50:28.622Z,73.10
2019-01-25T03:55:32.926Z,72.90
2019-01-25T04:00:36.622Z,73.10
2019-01-25T04:05:40.346Z,73.10
2019-01-25T04:10:44.079Z,72.90
2019-01-25T04:15:47.803Z,73.20
2019-01-25T04:20:51.766Z,73.60
2019-01-25T04:25:55.474Z,74.00
2019-01-25T04:30:59.266Z,73.90
2019-01-25T04:36:02.999Z,74.20
2019-01-25T04:41:11.590Z,74.30
2019-01-25T04:46:12.197Z,74.60
2019-01-25T04:51:15.933Z,75.10
2019-01-25T04:56:19.675Z,74.50
2019-01-25T05:01:23.454Z,74.40
2019-01-25T05:06:27.164Z,74.20
2019-01-25T05:11:30.891Z,74.40
2019-01-25T05:16:34.881Z,75.00
2019-01-25T05:21:38.741Z,75.30
2019-01-25T05:26:42.638Z,75.50
2019-01-25T05:31:46.429Z,75.90
2019-01-25T05:36:50.251Z,75.70
2019-01-25T05:41:53.959Z,75.80
2019-01-25T05:46:57.673Z,76.20
2019-01-25T05:52:01.382Z,76.70
2019-01-25T05:57:05.622Z,77.30
2019-01-25T06:02:09.429Z,76.60
2019-01-25T06:07:13.403Z,77.30
2019-01-25T06:12:17.110Z,76.80
2019-01-25T06:17:20.844Z,76.80
2019-01-25T06:22:24.551Z,76.40
2019-01-25T06:27:28.255Z,77.00
2019-01-25T06:32:32.215Z,77.20
2019-01-25T06:37:35.932Z,77.60
2019-01-25T06:42:39.659Z,77.30
2019-01-25T06:47:43.366Z,77.30
2019-01-25T06:52:47.082Z,77.70
2019-01-25T06:58:13.037Z,77.50
2019-01-25T07:03:17.048Z,73.50
2019-01-25T07:08:20.749Z,73.80
2019-01-25T07:13:24.478Z,75.10
2019-01-25T07:18:28.226Z,75.30
2019-01-25T07:23:32.015Z,76.00
2019-01-25T07:28:35.757Z,75.60
2019-01-25T07:33:39.478Z,75.00
2019-01-25T07:38:43.185Z,74.40
2019-01-25T07:43:46.968Z,74.40
2019-01-25T07:48:50.752Z,75.00
2019-01-25T07:53:54.805Z,75.10
2019-01-25T07:58:58.527Z,75.20
2019-01-25T08:04:02.344Z,74.50
2019-01-25T08:09:08.799Z,74.30
2019-01-25T08:14:12.925Z,74.30
2019-01-25T08:19:16.777Z,73.70
2019-01-25T08:24:20.747Z,73.80
2019-01-25T08:29:28.193Z,73.50
2019-01-25T08:34:30.333Z,73.20
2019-01-25T08:39:34.102Z,72.70
2019-01-25T08:44:37.821Z,72.90
2019-01-25T08:49:41.552Z,72.30
2019-01-25T08:54:45.329Z,72.10
2019-01-25T08:59:49.110Z,71.90
2019-01-25T09:04:52.904Z,72.10
2019-01-25T09:09:56.738Z,72.00
2019-01-25T09:15:00.457Z,72.20
2019-01-25T09:20:06.156Z,72.50
2019-01-25T09:25:09.935Z,72.70
2019-01-25T09:30:16.249Z,73.60
2019-01-25T09:35:20.238Z,72.80
2019-01-25T09:40:24.372Z,73.40
2019-01-25T09:45:28.081Z,73.20
2019-01-25T09:50:31.866Z,73.00
2019-01-25T09:55:35.583Z,72.80
2019-01-25T10:00:43.034Z,73.20
2019-01-25T10:05:46.751Z,73.40
2019-01-25T10:10:51.038Z,73.00
2019-01-25T10:15:54.838Z,73.00
2019-01-25T10:20:58.638Z,73.10
2019-01-25T10:26:02.367Z,73.20
2019-01-25T10:31:06.330Z,73.30
2019-01-25T10:36:10.062Z,74.10
2019-01-25T10:41:13.763Z,73.70
2019-01-25T10:46:17.634Z,73.20
2019-01-25T10:51:21.362Z,73.20
2019-01-25T10:56:25.357Z,73.50
2019-01-25T11:01:29.090Z,73.50
2019-01-25T11:06:32.909Z,73.00
2019-01-25T11:11:36.635Z,73.10
2019-01-25T11:16:40.360Z,73.40
2019-01-25T11:21:44.090Z,73.20
2019-01-25T11:26:48.045Z,73.20
2019-01-25T11:31:51.760Z,73.00
2019-01-25T11:36:55.467Z,72.90
2019-01-25T11:41:59.162Z,71.50
2019-01-25T11:47:03.134Z,72.00
2019-01-25T11:52:06.838Z,71.90
2019-01-25T11:57:10.549Z,70.60
2019-01-25T12:02:20.757Z,71.00
2019-01-25T12:07:19.710Z,68.30
2019-01-25T12:12:23.474Z,68.70
2019-01-25T12:17:27.204Z,68.10
2019-01-25T12:22:30.975Z,67.20
2019-01-25T12:27:34.714Z,68.10
2019-01-25T12:32:38.425Z,68.10
2019-01-25T12:37:42.143Z,68.10
2019-01-25T12:42:45.825Z,69.60
2019-01-25T12:47:49.543Z,70.50
2019-01-25T12:52:53.356Z,69.20
2019-01-25T12:57:57.083Z,69.50
2019-01-25T13:03:00.811Z,69.80
2019-01-25T13:08:04.702Z,69.00
2019-01-25T13:13:08.423Z,67.40
2019-01-25T13:18:12.167Z,67.20
2019-01-25T13:23:15.910Z,68.20
2019-01-25T13:28:19.645Z,67.40
2019-01-25T13:33:23.468Z,66.50
2019-01-25T13:38:27.179Z,66.00
2019-01-25T13:43:31.157Z,65.90
2019-01-25T13:48:34.863Z,65.30
2019-01-25T13:53:38.589Z,65.20
2019-01-25T13:58:42.291Z,64.60
2019-01-25T14:03:46.367Z,64.30
2019-01-25T14:08:50.091Z,65.80
2019-01-25T14:13:53.822Z,66.10
2019-01-25T14:18:57.670Z,65.20
2019-01-25T14:24:01.415Z,64.70
2019-01-25T14:29:05.667Z,65.80
2019-01-25T14:34:09.377Z,65.80
2019-01-25T14:39:13.322Z,67.20
2019-01-25T14:44:17.108Z,67.40
2019-01-25T14:49:21.757Z,66.50
2019-01-25T14:54:25.647Z,66.20
2019-01-25T14:59:29.367Z,66.40
2019-01-25T15:04:33.159Z,66.40
2019-01-25T15:09:38.072Z,67.20
2019-01-25T15:14:43.614Z,67.70
2019-01-25T15:19:47.336Z,68.80
2019-01-25T15:24:51.167Z,69.20
2019-01-25T15:29:54.904Z,69.60
2019-01-25T15:34:58.748Z,69.20
2019-01-25T15:40:02.488Z,70.40
2019-01-25T15:45:07.715Z,71.20
2019-01-25T15:50:15.837Z,71.50
2019-01-25T15:55:20.343Z,71.00
2019-01-25T16:00:25.606Z,70.80
2019-01-25T16:05:29.483Z,70.60
2019-01-25T16:10:33.189Z,70.40
2019-01-25T16:15:37.171Z,71.00
2019-01-25T16:20:40.960Z,71.40
2019-01-25T16:25:44.666Z,70.70
2019-01-25T16:30:48.385Z,70.50
2019-01-25T16:35:52.090Z,70.60
2019-01-25T16:40:55.802Z,71.10
2019-01-25T16:45:59.534Z,71.10
2019-01-25T16:51:03.328Z,71.20
2019-01-25T16:56:07.059Z,70.80
2019-01-25T17:01:10.787Z,70.70
2019-01-25T17:06:14.586Z,70.70
2019-01-25T17:11:18.563Z,70.50
2019-01-25T17:16:22.423Z,70.80
2019-01-25T17:21:26.146Z,70.90
2019-01-25T17:26:29.869Z,71.00
2019-01-25T17:31:33.581Z,70.80
2019-01-25T17:36:37.323Z,70.90
2019-01-25T17:41:41.074Z,71.00
2019-01-25T17:46:45.050Z,70.50
2019-01-25T17:51:48.782Z,70.70
2019-01-25T17:56:52.509Z,70.70
2019-01-25T18:01:56.352Z,70.80
2019-01-25T18:07:00.106Z,70.80
2019-01-25T18:12:03.911Z,70.70
2019-01-25T18:17:07.618Z,70.40
2019-01-25T18:22:11.335Z,70.10
2019-01-25T18:27:15.038Z,70.00
2019-01-25T18:32:18.998Z,69.40
2019-01-25T18:37:22.782Z,70.10
2019-01-25T18:42:26.563Z,70.10
2019-01-25T18:47:30.287Z,71.10
2019-01-25T18:52:33.991Z,70.40
2019-01-25T18:57:37.772Z,70.80
2019-01-25T19:02:41.490Z,70.80
2019-01-25T19:07:45.336Z,70.70
2019-01-25T19:12:49.503Z,70.80
2019-01-25T19:17:53.295Z,71.00
2019-01-25T19:22:57.007Z,71.30
2019-01-25T19:28:00.737Z,71.50
2019-01-25T19:33:04.866Z,71.70
2019-01-25T19:38:10.071Z,71.60
2019-01-25T19:43:13.786Z,72.10
2019-01-25T19:48:18.794Z,72.30
2019-01-25T19:53:23.697Z,72.80
2019-01-25T19:58:28.020Z,73.00
2019-01-25T20:03:32.735Z,73.20
2019-01-25T20:08:36.543Z,73.60
2019-01-25T20:13:40.465Z,73.70
2019-01-25T20:18:44.175Z,73.90
2019-01-25T20:23:48.189Z,73.90
2019-01-25T20:28:52.219Z,74.20
2019-01-25T20:33:59.069Z,74.10
2019-01-25T20:39:03.637Z,74.20
2019-01-25T20:44:07.796Z,74.30
2019-01-25T20:49:12.190Z,74.40
2019-01-25T20:54:16.339Z,74.70
2019-01-25T20:59:20.448Z,74.80
2019-01-25T21:04:24.697Z,74.80
2019-01-25T21:09:28.730Z,74.80
2019-01-25T21:14:32.608Z,74.80
2019-01-25T21:19:37.041Z,75.00
2019-01-25T21:24:40.811Z,75.00
2019-01-25T21:29:44.826Z,75.10
2019-01-25T21:34:48.812Z,75.10
2019-01-25T21:39:52.889Z,75.10
2019-01-25T21:44:56.626Z,75.40
2019-01-25T21:50:00.539Z,75.00
2019-01-25T21:55:05.236Z,75.50
2019-01-25T22:00:20.477Z,75.50
2019-01-25T22:05:24.336Z,75.40
2019-01-25T22:10:33.806Z,75.40
2019-01-25T22:15:37.707Z,75.10
2019-01-25T22:20:41.534Z,75.10
2019-01-25T22:25:45.247Z,75.10
2019-01-25T22:30:49.130Z,75.20
2019-01-25T22:35:52.983Z,75.20
2019-01-25T22:40:56.803Z,75.40
2019-01-25T22:46:00.594Z,75.30
2019-01-25T22:51:04.767Z,75.70
2019-01-25T22:56:08.735Z,75.80
2019-01-25T23:01:21.041Z,75.10
2019-01-25T23:06:41.242Z,75.50
2019-01-25T23:11:45.214Z,75.30
2019-01-25T23:16:49.435Z,74.00
2019-01-25T23:21:53.158Z,73.70
2019-01-25T23:26:56.851Z,73.90
2019-01-25T23:32:00.582Z,73.80
2019-01-25T23:37:04.747Z,73.50
2019-01-25T23:42:08.482Z,72.50
2019-01-25T23:47:12.220Z,72.10
2019-01-25T23:52:16.212Z,71.50
2019-01-25T23:57:19.923Z,71.40
